sensor_id;sensor_type;location;lat;lon;timestamp;pressure;altitude;pressure_sealevel;temperature;humidity
79411;BME280;69635;50.964;6.948;2023-10-19T00:01:13;99166.00;;;10.87;100.00
79411;BME280;69635;50.964;6.948;2023-10-19T00:03:41;99163.31;;;10.88;100.00
79411;BME280;69635;50.964;6.948;2023-10-19T00:06:09;99159.72;;;10.91;100.00
79411;BME280;69635;50.964;6.948;2023-10-19T00:08:36;99165.84;;;10.93;100.00
79411;BME280;69635;50.964;6.948;2023-10-19T00:11:08;99171.84;;;10.98;100.00
79411;BME280;69635;50.964;6.948;2023-10-19T00:13:35;99150.75;;;10.96;100.00
79411;BME280;69635;50.964;6.948;2023-10-19T00:16:01;99156.91;;;10.97;100.00
79411;BME280;69635;50.964;6.948;2023-10-19T00:18:32;99170.03;;;11.00;100.00
79411;BME280;69635;50.964;6.948;2023-10-19T00:21:00;99171.69;;;11.04;100.00
79411;BME280;69635;50.964;6.948;2023-10-19T00:23:36;99154.91;;;11.05;100.00
79411;BME280;69635;50.964;6.948;2023-10-19T00:26:04;99142.50;;;11.07;100.00
79411;BME280;69635;50.964;6.948;2023-10-19T00:28:34;99142.44;;;11.08;100.00
79411;BME280;69635;50.964;6.948;2023-10-19T00:31:01;99145.91;;;11.10;100.00
79411;BME280;69635;50.964;6.948;2023-10-19T00:33:29;99144.03;;;11.14;100.00
79411;BME280;69635;50.964;6.948;2023-10-19T00:36:00;99140.47;;;11.15;100.00
79411;BME280;69635;50.964;6.948;2023-10-19T00:41:08;99146.44;;;11.23;100.00
79411;BME280;69635;50.964;6.948;2023-10-19T00:43:41;99151.63;;;11.26;100.00
79411;BME280;69635;50.964;6.948;2023-10-19T00:46:15;99161.25;;;11.28;100.00
79411;BME280;69635;50.964;6.948;2023-10-19T00:48:51;99149.84;;;11.26;100.00
79411;BME280;69635;50.964;6.948;2023-10-19T00:51:20;99136.59;;;11.26;100.00
79411;BME280;69635;50.964;6.948;2023-10-19T00:54:15;99140.25;;;11.22;100.00
79411;BME280;69635;50.964;6.948;2023-10-19T00:56:47;99138.47;;;11.23;100.00
79411;BME280;69635;50.964;6.948;2023-10-19T00:59:23;99133.28;;;11.20;100.00
79411;BME280;69635;50.964;6.948;2023-10-19T01:01:51;99142.13;;;11.19;100.00
79411;BME280;69635;50.964;6.948;2023-10-19T01:04:19;99127.22;;;11.16;100.00
79411;BME280;69635;50.964;6.948;2023-10-19T01:06:57;99143.88;;;11.20;100.00
79411;BME280;69635;50.964;6.948;2023-10-19T01:09:29;99132.25;;;11.24;100.00
79411;BME280;69635;50.964;6.948;2023-10-19T01:12:00;99132.19;;;11.27;100.00
79411;BME280;69635;50.964;6.948;2023-10-19T01:14:31;99138.25;;;11.30;100.00
79411;BME280;69635;50.964;6.948;2023-10-19T01:16:57;99146.06;;;11.35;100.00
79411;BME280;69635;50.964;6.948;2023-10-19T01:19:23;99143.44;;;11.33;100.00
79411;BME280;69635;50.964;6.948;2023-10-19T01:21:50;99135.47;;;11.35;100.00
79411;BME280;69635;50.964;6.948;2023-10-19T01:24:21;99137.16;;;11.37;100.00
79411;BME280;69635;50.964;6.948;2023-10-19T01:27:05;99144.06;;;11.43;100.00
79411;BME280;69635;50.964;6.948;2023-10-19T01:29:33;99148.38;;;11.45;100.00
79411;BME280;69635;50.964;6.948;2023-10-19T01:32:00;99156.13;;;11.51;100.00
79411;BME280;69635;50.964;6.948;2023-10-19T01:34:33;99155.13;;;11.55;100.00
79411;BME280;69635;50.964;6.948;2023-10-19T01:36:59;99145.22;;;11.62;100.00
79411;BME280;69635;50.964;6.948;2023-10-19T01:39:33;99139.78;;;11.66;100.00
79411;BME280;69635;50.964;6.948;2023-10-19T01:42:02;99147.72;;;11.68;100.00
79411;BME280;69635;50.964;6.948;2023-10-19T01:44:30;99141.44;;;11.70;100.00
79411;BME280;69635;50.964;6.948;2023-10-19T01:46:55;99141.31;;;11.75;100.00
79411;BME280;69635;50.964;6.948;2023-10-19T01:49:20;99140.31;;;11.77;100.00
79411;BME280;69635;50.964;6.948;2023-10-19T01:51:55;99127.13;;;11.76;100.00
79411;BME280;69635;50.964;6.948;2023-10-19T01:54:22;99121.78;;;11.77;100.00
79411;BME280;69635;50.964;6.948;2023-10-19T01:56:54;99117.19;;;11.83;100.00
79411;BME280;69635;50.964;6.948;2023-10-19T01:59:23;99117.16;;;11.84;100.00
79411;BME280;69635;50.964;6.948;2023-10-19T02:01:52;99119.69;;;11.87;100.00
79411;BME280;69635;50.964;6.948;2023-10-19T02:04:17;99113.44;;;11.90;100.00
79411;BME280;69635;50.964;6.948;2023-10-19T02:06:47;99123.13;;;11.91;100.00
79411;BME280;69635;50.964;6.948;2023-10-19T02:09:13;99117.66;;;11.95;100.00
79411;BME280;69635;50.964;6.948;2023-10-19T02:11:45;99107.06;;;11.95;100.00
79411;BME280;69635;50.964;6.948;2023-10-19T02:14:11;99114.00;;;11.99;100.00
79411;BME280;69635;50.964;6.948;2023-10-19T02:16:44;99098.84;;;12.03;100.00
79411;BME280;69635;50.964;6.948;2023-10-19T02:19:16;99105.28;;;11.96;100.00
79411;BME280;69635;50.964;6.948;2023-10-19T02:21:41;99101.16;;;11.87;100.00
79411;BME280;69635;50.964;6.948;2023-10-19T02:24:08;99095.22;;;11.81;100.00
79411;BME280;69635;50.964;6.948;2023-10-19T02:26:34;99097.09;;;11.77;100.00
79411;BME280;69635;50.964;6.948;2023-10-19T02:29:01;99092.44;;;11.84;100.00
79411;BME280;69635;50.964;6.948;2023-10-19T02:31:29;99096.63;;;11.91;100.00
79411;BME280;69635;50.964;6.948;2023-10-19T02:33:55;99096.56;;;11.92;100.00
79411;BME280;69635;50.964;6.948;2023-10-19T02:36:28;99094.72;;;11.94;100.00
79411;BME280;69635;50.964;6.948;2023-10-19T02:38:58;99089.56;;;11.91;100.00
79411;BME280;69635;50.964;6.948;2023-10-19T02:41:25;99099.41;;;11.86;100.00
79411;BME280;69635;50.964;6.948;2023-10-19T02:43:52;99096.88;;;11.83;100.00
79411;BME280;69635;50.964;6.948;2023-10-19T02:46:48;99093.44;;;11.80;100.00
79411;BME280;69635;50.964;6.948;2023-10-19T02:49:16;99093.41;;;11.81;100.00
79411;BME280;69635;50.964;6.948;2023-10-19T02:51:46;99087.28;;;11.79;100.00
79411;BME280;69635;50.964;6.948;2023-10-19T02:54:13;99085.31;;;11.86;100.00
79411;BME280;69635;50.964;6.948;2023-10-19T02:56:46;99076.25;;;11.93;100.00
79411;BME280;69635;50.964;6.948;2023-10-19T02:59:15;99086.59;;;12.00;100.00
79411;BME280;69635;50.964;6.948;2023-10-19T03:01:42;99078.53;;;12.03;100.00
79411;BME280;69635;50.964;6.948;2023-10-19T03:04:09;99070.69;;;12.00;100.00
79411;BME280;69635;50.964;6.948;2023-10-19T03:06:38;99066.28;;;11.99;100.00
79411;BME280;69635;50.964;6.948;2023-10-19T03:09:06;99073.22;;;12.03;100.00
79411;BME280;69635;50.964;6.948;2023-10-19T03:11:39;99064.34;;;12.04;100.00
79411;BME280;69635;50.964;6.948;2023-10-19T03:14:06;99066.97;;;12.06;100.00
79411;BME280;69635;50.964;6.948;2023-10-19T03:16:32;99072.22;;;12.07;100.00
79411;BME280;69635;50.964;6.948;2023-10-19T03:18:57;99067.81;;;12.06;100.00
79411;BME280;69635;50.964;6.948;2023-10-19T03:21:23;99060.63;;;12.10;100.00
79411;BME280;69635;50.964;6.948;2023-10-19T03:23:58;99060.56;;;12.11;100.00
79411;BME280;69635;50.964;6.948;2023-10-19T03:26:27;99064.84;;;12.15;100.00
79411;BME280;69635;50.964;6.948;2023-10-19T03:29:02;99053.34;;;12.16;100.00
79411;BME280;69635;50.964;6.948;2023-10-19T03:31:33;99055.00;;;12.19;100.00
79411;BME280;69635;50.964;6.948;2023-10-19T03:34:02;99041.88;;;12.16;100.00
79411;BME280;69635;50.964;6.948;2023-10-19T03:36:30;99033.22;;;12.11;100.00
79411;BME280;69635;50.964;6.948;2023-10-19T03:38:57;99033.47;;;12.03;100.00
79411;BME280;69635;50.964;6.948;2023-10-19T03:41:29;99032.66;;;12.01;100.00
79411;BME280;69635;50.964;6.948;2023-10-19T03:44:01;99036.13;;;12.03;100.00
79411;BME280;69635;50.964;6.948;2023-10-19T03:46:26;99043.16;;;12.04;100.00
79411;BME280;69635;50.964;6.948;2023-10-19T03:49:03;99038.59;;;12.08;100.00
79411;BME280;69635;50.964;6.948;2023-10-19T03:51:38;99033.09;;;12.14;100.00
79411;BME280;69635;50.964;6.948;2023-10-19T03:54:23;99033.78;;;12.19;100.00
79411;BME280;69635;50.964;6.948;2023-10-19T03:56:50;99034.41;;;12.27;100.00
79411;BME280;69635;50.964;6.948;2023-10-19T03:59:16;99030.81;;;12.28;100.00
79411;BME280;69635;50.964;6.948;2023-10-19T04:01:42;99039.59;;;12.30;100.00
79411;BME280;69635;50.964;6.948;2023-10-19T04:04:09;99036.66;;;12.37;100.00
79411;BME280;69635;50.964;6.948;2023-10-19T04:06:35;99031.31;;;12.39;100.00
79411;BME280;69635;50.964;6.948;2023-10-19T04:09:02;99024.22;;;12.39;100.00
79411;BME280;69635;50.964;6.948;2023-10-19T04:11:29;99019.00;;;12.36;100.00
79411;BME280;69635;50.964;6.948;2023-10-19T04:13:59;99021.72;;;12.35;100.00
79411;BME280;69635;50.964;6.948;2023-10-19T04:16:29;99016.34;;;12.36;100.00
79411;BME280;69635;50.964;6.948;2023-10-19T04:18:55;99000.44;;;12.36;100.00
79411;BME280;69635;50.964;6.948;2023-10-19T04:21:20;99004.19;;;12.31;100.00
79411;BME280;69635;50.964;6.948;2023-10-19T04:23:45;99009.66;;;12.26;100.00
79411;BME280;69635;50.964;6.948;2023-10-19T04:26:12;99013.19;;;12.27;100.00
79411;BME280;69635;50.964;6.948;2023-10-19T04:28:40;99011.19;;;12.33;100.00
79411;BME280;69635;50.964;6.948;2023-10-19T04:31:16;99014.00;;;12.29;100.00
79411;BME280;69635;50.964;6.948;2023-10-19T04:33:42;99019.31;;;12.29;100.00
79411;BME280;69635;50.964;6.948;2023-10-19T04:36:11;99013.81;;;12.33;100.00
79411;BME280;69635;50.964;6.948;2023-10-19T04:38:37;99015.59;;;12.33;100.00
79411;BME280;69635;50.964;6.948;2023-10-19T04:41:06;99005.72;;;12.38;100.00
79411;BME280;69635;50.964;6.948;2023-10-19T04:43:36;98995.00;;;12.41;100.00
79411;BME280;69635;50.964;6.948;2023-10-19T04:46:09;99009.00;;;12.44;100.00
79411;BME280;69635;50.964;6.948;2023-10-19T04:48:39;98994.88;;;12.44;100.00
79411;BME280;69635;50.964;6.948;2023-10-19T04:51:08;98996.56;;;12.46;100.00
79411;BME280;69635;50.964;6.948;2023-10-19T04:53:34;98998.13;;;12.52;100.00
79411;BME280;69635;50.964;6.948;2023-10-19T04:56:00;99002.44;;;12.54;100.00
79411;BME280;69635;50.964;6.948;2023-10-19T04:58:27;99004.19;;;12.55;100.00
79411;BME280;69635;50.964;6.948;2023-10-19T05:00:53;98999.84;;;12.53;100.00
79411;BME280;69635;50.964;6.948;2023-10-19T05:03:19;98999.78;;;12.54;100.00
79411;BME280;69635;50.964;6.948;2023-10-19T05:05:45;99003.25;;;12.56;100.00
79411;BME280;69635;50.964;6.948;2023-10-19T05:08:11;99006.66;;;12.60;100.00
79411;BME280;69635;50.964;6.948;2023-10-19T05:10:36;99011.06;;;12.59;100.00
79411;BME280;69635;50.964;6.948;2023-10-19T05:13:02;99009.22;;;12.61;100.00
79411;BME280;69635;50.964;6.948;2023-10-19T05:15:28;99004.69;;;12.65;100.00
79411;BME280;69635;50.964;6.948;2023-10-19T05:17:54;99001.75;;;12.72;100.00
79411;BME280;69635;50.964;6.948;2023-10-19T05:20:19;98999.03;;;12.74;100.00
79411;BME280;69635;50.964;6.948;2023-10-19T05:22:46;99001.75;;;12.72;100.00
79411;BME280;69635;50.964;6.948;2023-10-19T05:25:12;98996.31;;;12.75;100.00
79411;BME280;69635;50.964;6.948;2023-10-19T05:27:38;98997.13;;;12.77;100.00
79411;BME280;69635;50.964;6.948;2023-10-19T05:30:04;98992.75;;;12.76;100.00
79411;BME280;69635;50.964;6.948;2023-10-19T05:32:30;99000.66;;;12.78;100.00
79411;BME280;69635;50.964;6.948;2023-10-19T05:34:56;98992.63;;;12.79;100.00
79411;BME280;69635;50.964;6.948;2023-10-19T05:37:22;98994.25;;;12.83;100.00
79411;BME280;69635;50.964;6.948;2023-10-19T05:39:48;98991.53;;;12.85;100.00
79411;BME280;69635;50.964;6.948;2023-10-19T05:42:17;98983.56;;;12.85;100.00
79411;BME280;69635;50.964;6.948;2023-10-19T05:44:42;98991.38;;;12.90;100.00
79411;BME280;69635;50.964;6.948;2023-10-19T05:47:07;98990.50;;;12.89;100.00
79411;BME280;69635;50.964;6.948;2023-10-19T05:49:33;98996.53;;;12.93;100.00
79411;BME280;69635;50.964;6.948;2023-10-19T05:51:59;98988.59;;;12.93;100.00
79411;BME280;69635;50.964;6.948;2023-10-19T05:54:24;98997.50;;;12.90;100.00
79411;BME280;69635;50.964;6.948;2023-10-19T05:56:50;99000.28;;;12.87;100.00
79411;BME280;69635;50.964;6.948;2023-10-19T05:59:16;99001.03;;;12.91;100.00
79411;BME280;69635;50.964;6.948;2023-10-19T06:01:42;99004.72;;;12.87;100.00
79411;BME280;69635;50.964;6.948;2023-10-19T06:04:11;99007.31;;;12.88;100.00
79411;BME280;69635;50.964;6.948;2023-10-19T06:06:38;99009.94;;;12.90;100.00
79411;BME280;69635;50.964;6.948;2023-10-19T06:09:05;99018.66;;;12.93;100.00
79411;BME280;69635;50.964;6.948;2023-10-19T06:11:33;99016.84;;;12.94;100.00
79411;BME280;69635;50.964;6.948;2023-10-19T06:13:59;99024.69;;;12.97;100.00
79411;BME280;69635;50.964;6.948;2023-10-19T06:16:25;99025.38;;;13.02;100.00
79411;BME280;69635;50.964;6.948;2023-10-19T06:18:50;99031.53;;;13.04;100.00
79411;BME280;69635;50.964;6.948;2023-10-19T06:21:19;99028.69;;;13.08;100.00
79411;BME280;69635;50.964;6.948;2023-10-19T06:23:44;99030.38;;;13.11;100.00
79411;BME280;69635;50.964;6.948;2023-10-19T06:26:10;99038.22;;;13.14;100.00
79411;BME280;69635;50.964;6.948;2023-10-19T06:28:40;99038.88;;;13.19;100.00
79411;BME280;69635;50.964;6.948;2023-10-19T06:31:06;99035.38;;;13.18;100.00
79411;BME280;69635;50.964;6.948;2023-10-19T06:33:32;99037.09;;;13.19;100.00
79411;BME280;69635;50.964;6.948;2023-10-19T06:36:01;99045.75;;;13.24;100.00
79411;BME280;69635;50.964;6.948;2023-10-19T06:38:31;99036.81;;;13.27;100.00
79411;BME280;69635;50.964;6.948;2023-10-19T06:40:57;99041.13;;;13.29;100.00
79411;BME280;69635;50.964;6.948;2023-10-19T06:43:22;99044.72;;;13.28;100.00
79411;BME280;69635;50.964;6.948;2023-10-19T06:45:53;99036.53;;;13.33;100.00
79411;BME280;69635;50.964;6.948;2023-10-19T06:48:20;99034.69;;;13.35;100.00
79411;BME280;69635;50.964;6.948;2023-10-19T06:50:46;99042.59;;;13.36;100.00
79411;BME280;69635;50.964;6.948;2023-10-19T06:53:11;99041.63;;;13.39;100.00
79411;BME280;69635;50.964;6.948;2023-10-19T06:55:36;99040.69;;;13.40;100.00
79411;BME280;69635;50.964;6.948;2023-10-19T06:58:02;99041.50;;;13.42;100.00
79411;BME280;69635;50.964;6.948;2023-10-19T07:00:27;99039.56;;;13.45;100.00
79411;BME280;69635;50.964;6.948;2023-10-19T07:02:55;99043.78;;;13.51;100.00
79411;BME280;69635;50.964;6.948;2023-10-19T07:05:22;99047.25;;;13.53;100.00
79411;BME280;69635;50.964;6.948;2023-10-19T07:07:50;99053.28;;;13.56;100.00
79411;BME280;69635;50.964;6.948;2023-10-19T07:10:21;99049.66;;;13.59;100.00
79411;BME280;69635;50.964;6.948;2023-10-19T07:12:51;99052.19;;;13.62;100.00
79411;BME280;69635;50.964;6.948;2023-10-19T07:15:16;99058.25;;;13.65;100.00
79411;BME280;69635;50.964;6.948;2023-10-19T07:17:48;99054.66;;;13.66;100.00
79411;BME280;69635;50.964;6.948;2023-10-19T07:20:16;99055.44;;;13.68;100.00
79411;BME280;69635;50.964;6.948;2023-10-19T07:22:54;99048.28;;;13.70;100.00
79411;BME280;69635;50.964;6.948;2023-10-19T07:25:20;99058.75;;;13.75;100.00
79411;BME280;69635;50.964;6.948;2023-10-19T07:27:51;99053.28;;;13.78;100.00
79411;BME280;69635;50.964;6.948;2023-10-19T07:30:18;99048.78;;;13.80;100.00
79411;BME280;69635;50.964;6.948;2023-10-19T07:32:50;99037.28;;;13.79;100.00
79411;BME280;69635;50.964;6.948;2023-10-19T07:35:25;99052.91;;;13.87;100.00
79411;BME280;69635;50.964;6.948;2023-10-19T07:37:52;99058.09;;;13.90;100.00
79411;BME280;69635;50.964;6.948;2023-10-19T07:40:17;99064.03;;;13.97;100.00
79411;BME280;69635;50.964;6.948;2023-10-19T07:42:46;99070.19;;;13.97;100.00
79411;BME280;69635;50.964;6.948;2023-10-19T07:45:12;99067.28;;;14.03;100.00
79411;BME280;69635;50.964;6.948;2023-10-19T07:47:38;99066.03;;;14.12;100.00
79411;BME280;69635;50.964;6.948;2023-10-19T07:50:07;99056.00;;;14.18;100.00
79411;BME280;69635;50.964;6.948;2023-10-19T07:52:38;99066.38;;;14.24;100.00
79411;BME280;69635;50.964;6.948;2023-10-19T07:55:04;99065.41;;;14.27;100.00
79411;BME280;69635;50.964;6.948;2023-10-19T07:57:30;99055.50;;;14.30;100.00
79411;BME280;69635;50.964;6.948;2023-10-19T07:59:55;99054.38;;;14.36;100.00
79411;BME280;69635;50.964;6.948;2023-10-19T08:02:22;99055.94;;;14.40;100.00
79411;BME280;69635;50.964;6.948;2023-10-19T08:04:50;99054.16;;;14.40;100.00
79411;BME280;69635;50.964;6.948;2023-10-19T08:07:17;99054.63;;;14.50;100.00
79411;BME280;69635;50.964;6.948;2023-10-19T08:09:42;99041.97;;;14.55;100.00
79411;BME280;69635;50.964;6.948;2023-10-19T08:12:09;99030.19;;;14.60;100.00
79411;BME280;69635;50.964;6.948;2023-10-19T08:14:34;99038.66;;;14.70;100.00
79411;BME280;69635;50.964;6.948;2023-10-19T08:17:00;99036.47;;;14.78;100.00
79411;BME280;69635;50.964;6.948;2023-10-19T08:19:27;99037.13;;;14.83;100.00
79411;BME280;69635;50.964;6.948;2023-10-19T08:21:53;99039.25;;;14.95;100.00
79411;BME280;69635;50.964;6.948;2023-10-19T08:24:18;99029.16;;;15.02;100.00
79411;BME280;69635;50.964;6.948;2023-10-19T08:26:47;99035.94;;;15.09;100.00
79411;BME280;69635;50.964;6.948;2023-10-19T08:29:12;99030.53;;;15.10;100.00
79411;BME280;69635;50.964;6.948;2023-10-19T08:31:42;99041.75;;;15.17;100.00
79411;BME280;69635;50.964;6.948;2023-10-19T08:34:10;99033.19;;;15.29;100.00
79411;BME280;69635;50.964;6.948;2023-10-19T08:36:36;99030.94;;;15.38;100.00
79411;BME280;69635;50.964;6.948;2023-10-19T08:39:04;99033.34;;;15.44;100.00
79411;BME280;69635;50.964;6.948;2023-10-19T08:41:40;99035.78;;;15.49;100.00
79411;BME280;69635;50.964;6.948;2023-10-19T08:44:06;99038.41;;;15.67;100.00
79411;BME280;69635;50.964;6.948;2023-10-19T08:46:43;99036.47;;;15.88;100.00
79411;BME280;69635;50.964;6.948;2023-10-19T08:49:12;99033.22;;;16.00;100.00
79411;BME280;69635;50.964;6.948;2023-10-19T08:51:46;99028.81;;;15.99;100.00
79411;BME280;69635;50.964;6.948;2023-10-19T08:54:13;99024.59;;;15.95;100.00
79411;BME280;69635;50.964;6.948;2023-10-19T08:56:40;99025.81;;;15.88;100.00
79411;BME280;69635;50.964;6.948;2023-10-19T08:59:10;99017.25;;;15.81;100.00
79411;BME280;69635;50.964;6.948;2023-10-19T09:01:41;99027.13;;;15.79;100.00
79411;BME280;69635;50.964;6.948;2023-10-19T09:04:10;99026.44;;;15.76;100.00
79411;BME280;69635;50.964;6.948;2023-10-19T09:06:36;99026.03;;;15.66;100.00
79411;BME280;69635;50.964;6.948;2023-10-19T09:09:11;99018.69;;;15.71;100.00
79411;BME280;69635;50.964;6.948;2023-10-19T09:11:47;99014.25;;;15.70;100.00
79411;BME280;69635;50.964;6.948;2023-10-19T09:14:16;99011.53;;;15.72;100.00
79411;BME280;69635;50.964;6.948;2023-10-19T09:16:56;99011.22;;;15.78;100.00
79411;BME280;69635;50.964;6.948;2023-10-19T09:19:42;99008.88;;;15.89;100.00
79411;BME280;69635;50.964;6.948;2023-10-19T09:22:09;99000.59;;;15.95;100.00
79411;BME280;69635;50.964;6.948;2023-10-19T09:24:44;99005.75;;;15.98;100.00
79411;BME280;69635;50.964;6.948;2023-10-19T09:27:10;99004.72;;;16.01;100.00
79411;BME280;69635;50.964;6.948;2023-10-19T09:29:36;98992.09;;;16.04;100.00
79411;BME280;69635;50.964;6.948;2023-10-19T09:32:03;98998.69;;;16.14;100.00
79411;BME280;69635;50.964;6.948;2023-10-19T09:34:30;98993.81;;;16.22;100.00
79411;BME280;69635;50.964;6.948;2023-10-19T09:37:02;98977.88;;;16.38;100.00
79411;BME280;69635;50.964;6.948;2023-10-19T09:39:31;98977.94;;;16.53;100.00
79411;BME280;69635;50.964;6.948;2023-10-19T09:42:06;98970.50;;;16.75;100.00
79411;BME280;69635;50.964;6.948;2023-10-19T09:44:47;98957.41;;;16.86;100.00
79411;BME280;69635;50.964;6.948;2023-10-19T09:47:35;98958.72;;;16.95;100.00
79411;BME280;69635;50.964;6.948;2023-10-19T09:50:01;98958.28;;;17.02;100.00
79411;BME280;69635;50.964;6.948;2023-10-19T09:52:28;98954.56;;;17.05;100.00
79411;BME280;69635;50.964;6.948;2023-10-19T09:58:10;98954.06;;;16.98;100.00
79411;BME280;69635;50.964;6.948;2023-10-19T10:00:37;98951.41;;;16.98;100.00
79411;BME280;69635;50.964;6.948;2023-10-19T10:03:03;98954.66;;;17.04;100.00
79411;BME280;69635;50.964;6.948;2023-10-19T10:10:43;98942.31;;;17.32;100.00
79411;BME280;69635;50.964;6.948;2023-10-19T10:15:51;98941.97;;;17.83;100.00
79411;BME280;69635;50.964;6.948;2023-10-19T10:18:18;98937.91;;;18.06;100.00
79411;BME280;69635;50.964;6.948;2023-10-19T10:20:43;98934.69;;;18.29;100.00
79411;BME280;69635;50.964;6.948;2023-10-19T10:23:19;98943.25;;;18.50;100.00
79411;BME280;69635;50.964;6.948;2023-10-19T10:25:50;98938.22;;;18.59;100.00
79411;BME280;69635;50.964;6.948;2023-10-19T10:28:19;98932.44;;;18.79;100.00
79411;BME280;69635;50.964;6.948;2023-10-19T10:31:21;98927.94;;;18.80;100.00
79411;BME280;69635;50.964;6.948;2023-10-19T10:33:49;98925.28;;;18.66;100.00
79411;BME280;69635;50.964;6.948;2023-10-19T10:36:17;98926.06;;;18.54;100.00
79411;BME280;69635;50.964;6.948;2023-10-19T10:38:44;98925.09;;;18.41;100.00
79411;BME280;69635;50.964;6.948;2023-10-19T10:41:10;98933.13;;;18.41;100.00
79411;BME280;69635;50.964;6.948;2023-10-19T10:43:56;98932.75;;;18.47;100.00
79411;BME280;69635;50.964;6.948;2023-10-19T10:46:26;98931.41;;;18.54;100.00
79411;BME280;69635;50.964;6.948;2023-10-19T10:48:55;98936.97;;;18.65;100.00
79411;BME280;69635;50.964;6.948;2023-10-19T10:51:25;98928.31;;;18.74;100.00
79411;BME280;69635;50.964;6.948;2023-10-19T10:53:52;98931.66;;;18.77;100.00
79411;BME280;69635;50.964;6.948;2023-10-19T10:56:20;98918.66;;;18.85;100.00
79411;BME280;69635;50.964;6.948;2023-10-19T10:58:46;98916.81;;;19.00;100.00
79411;BME280;69635;50.964;6.948;2023-10-19T11:01:11;98912.47;;;19.12;100.00
79411;BME280;69635;50.964;6.948;2023-10-19T11:03:41;98906.44;;;19.08;100.00
79411;BME280;69635;50.964;6.948;2023-10-19T11:06:11;98897.94;;;19.01;100.00
79411;BME280;69635;50.964;6.948;2023-10-19T11:08:36;98891.16;;;18.96;100.00
79411;BME280;69635;50.964;6.948;2023-10-19T11:11:09;98886.94;;;18.92;100.00
79411;BME280;69635;50.964;6.948;2023-10-19T11:13:38;98887.53;;;18.83;100.00
79411;BME280;69635;50.964;6.948;2023-10-19T11:16:06;98886.28;;;18.88;100.00
79411;BME280;69635;50.964;6.948;2023-10-19T11:18:39;98891.53;;;18.90;100.00
79411;BME280;69635;50.964;6.948;2023-10-19T11:21:09;98884.09;;;18.95;100.00
79411;BME280;69635;50.964;6.948;2023-10-19T11:26:01;98867.22;;;19.07;100.00
79411;BME280;69635;50.964;6.948;2023-10-19T11:28:28;98869.28;;;19.16;100.00
79411;BME280;69635;50.964;6.948;2023-10-19T11:30:55;98871.53;;;19.22;100.00
79411;BME280;69635;50.964;6.948;2023-10-19T11:33:20;98871.84;;;19.18;100.00
79411;BME280;69635;50.964;6.948;2023-10-19T11:35:49;98869.19;;;19.18;100.00
79411;BME280;69635;50.964;6.948;2023-10-19T11:38:15;98862.50;;;19.11;100.00
79411;BME280;69635;50.964;6.948;2023-10-19T11:40:46;98861.75;;;19.08;100.00
79411;BME280;69635;50.964;6.948;2023-10-19T11:43:11;98859.56;;;19.01;100.00
79411;BME280;69635;50.964;6.948;2023-10-19T11:45:40;98850.03;;;18.83;100.00
79411;BME280;69635;50.964;6.948;2023-10-19T11:48:07;98846.31;;;18.85;100.00
79411;BME280;69635;50.964;6.948;2023-10-19T11:50:32;98847.94;;;18.88;100.00
79411;BME280;69635;50.964;6.948;2023-10-19T11:52:58;98850.69;;;18.86;100.00
79411;BME280;69635;50.964;6.948;2023-10-19T11:55:23;98853.03;;;18.78;100.00
79411;BME280;69635;50.964;6.948;2023-10-19T11:57:49;98861.72;;;18.82;100.00
79411;BME280;69635;50.964;6.948;2023-10-19T12:00:15;98856.75;;;18.76;100.00
79411;BME280;69635;50.964;6.948;2023-10-19T12:02:47;98865.56;;;18.78;100.00
79411;BME280;69635;50.964;6.948;2023-10-19T12:05:12;98860.41;;;18.75;100.00
79411;BME280;69635;50.964;6.948;2023-10-19T12:07:38;98856.00;;;18.74;100.00
79411;BME280;69635;50.964;6.948;2023-10-19T12:10:06;98857.06;;;18.71;100.00
79411;BME280;69635;50.964;6.948;2023-10-19T12:12:33;98863.47;;;18.69;100.00
79411;BME280;69635;50.964;6.948;2023-10-19T12:14:59;98858.09;;;18.69;100.00
79411;BME280;69635;50.964;6.948;2023-10-19T12:17:24;98850.97;;;18.55;100.00
79411;BME280;69635;50.964;6.948;2023-10-19T12:19:52;98856.81;;;18.48;100.00
79411;BME280;69635;50.964;6.948;2023-10-19T12:22:17;98856.13;;;18.30;100.00
79411;BME280;69635;50.964;6.948;2023-10-19T12:24:43;98877.25;;;18.21;100.00
79411;BME280;69635;50.964;6.948;2023-10-19T12:27:09;98870.75;;;18.25;100.00
79411;BME280;69635;50.964;6.948;2023-10-19T12:29:35;98871.41;;;18.28;100.00
79411;BME280;69635;50.964;6.948;2023-10-19T12:32:00;98867.59;;;18.32;100.00
79411;BME280;69635;50.964;6.948;2023-10-19T12:34:25;98868.75;;;18.28;100.00
79411;BME280;69635;50.964;6.948;2023-10-19T12:36:55;98860.34;;;18.34;100.00
79411;BME280;69635;50.964;6.948;2023-10-19T12:41:59;98863.09;;;18.19;100.00
79411;BME280;69635;50.964;6.948;2023-10-19T12:44:25;98856.81;;;18.06;100.00
79411;BME280;69635;50.964;6.948;2023-10-19T12:46:53;98862.72;;;18.11;100.00
79411;BME280;69635;50.964;6.948;2023-10-19T12:49:19;98862.41;;;18.15;100.00
79411;BME280;69635;50.964;6.948;2023-10-19T12:51:51;98867.78;;;18.15;100.00
79411;BME280;69635;50.964;6.948;2023-10-19T12:54:17;98873.78;;;18.19;100.00
79411;BME280;69635;50.964;6.948;2023-10-19T12:56:43;98880.78;;;18.21;100.00
79411;BME280;69635;50.964;6.948;2023-10-19T12:59:08;98879.91;;;18.21;100.00
79411;BME280;69635;50.964;6.948;2023-10-19T13:01:36;98890.41;;;18.10;100.00
79411;BME280;69635;50.964;6.948;2023-10-19T13:04:02;98899.72;;;18.04;100.00
79411;BME280;69635;50.964;6.948;2023-10-19T13:06:39;98904.75;;;18.09;100.00
79411;BME280;69635;50.964;6.948;2023-10-19T13:09:04;98894.53;;;18.15;100.00
79411;BME280;69635;50.964;6.948;2023-10-19T13:11:30;98891.38;;;18.09;100.00
79411;BME280;69635;50.964;6.948;2023-10-19T13:13:57;98895.41;;;18.01;100.00
79411;BME280;69635;50.964;6.948;2023-10-19T13:16:25;98897.38;;;17.84;100.00